Time;durP1;ratioP1;P1;durP2;ratioP2;P2;SDS_P1;SDS_P2;PMS_P1;PMS_P2;Temp;Humidity;BMP_temperature;BMP_pressure;BME280_temperature;BME280_humidity;BME280_pressure;Samples;Min_cycle;Max_cycle;Signal;HPM_P1;HPM_P2
2024/03/04 00:01:42;;;;;;;9.32;5.85;;;;;;;;;;5086306;28;20040;-64
2024/03/04 00:04:08;;;;;;;13.50;6.60;;;;;;;;;;5085111;28;20497;-63
2024/03/04 00:06:35;;;;;;;11.32;6.70;;;;;;;;;;5086985;28;20043;-64
2024/03/04 00:09:01;;;;;;;9.23;6.15;;;;;;;;;;5086117;28;20024;-65
2024/03/04 00:11:27;;;;;;;15.85;6.05;;;;;;;;;;5086018;28;20279;-63
2024/03/04 00:13:53;;;;;;;11.70;6.25;;;;;;;;;;5084113;28;20396;-64
2024/03/04 00:16:19;;;;;;;11.70;6.72;;;;;;;;;;5083063;28;20040;-64
2024/03/04 00:18:46;;;;;;;13.57;6.57;;;;;;;;;;5085742;28;20047;-64
2024/03/04 00:21:12;;;;;;;13.88;7.15;;;;;;;;;;5084001;28;20040;-64
2024/03/04 00:23:38;;;;;;;13.02;6.85;;;;;;;;;;5083855;28;20480;-64
2024/03/04 00:26:07;;;;;;;15.68;8.10;;;;;;;;;;5085133;28;20059;-65
2024/03/04 00:28:34;;;;;;;14.30;7.50;;;;;;;;;;5081128;28;20048;-65
2024/03/04 00:31:00;;;;;;;15.57;7.85;;;;;;;;;;5082005;28;20043;-65
2024/03/04 00:33:26;;;;;;;14.48;8.40;;;;;;;;;;5078722;28;20040;-66
2024/03/04 00:35:53;;;;;;;15.23;8.00;;;;;;;;;;5079467;28;20405;-64
2024/03/04 00:38:19;;;;;;;16.17;8.65;;;;;;;;;;5077743;28;20048;-64
2024/03/04 00:40:46;;;;;;;20.85;9.88;;;;;;;;;;5078477;28;20047;-64
2024/03/04 00:43:12;;;;;;;20.88;10.45;;;;;;;;;;5078843;28;20047;-64
2024/03/04 00:45:38;;;;;;;23.92;11.35;;;;;;;;;;5079364;28;20067;-64
2024/03/04 00:48:04;;;;;;;21.80;10.95;;;;;;;;;;5073783;28;20047;-66
2024/03/04 00:50:31;;;;;;;23.23;11.45;;;;;;;;;;5076732;28;20044;-63
2024/03/04 00:52:58;;;;;;;24.45;11.23;;;;;;;;;;5073312;28;20059;-64
2024/03/04 00:55:25;;;;;;;29.23;14.77;;;;;;;;;;5077700;28;20489;-64
2024/03/04 00:57:51;;;;;;;31.90;15.13;;;;;;;;;;5082777;28;20035;-64
2024/03/04 01:00:17;;;;;;;30.42;14.48;;;;;;;;;;5071841;28;20048;-64
2024/03/04 01:02:44;;;;;;;33.92;15.13;;;;;;;;;;5075511;28;20092;-65
2024/03/04 01:05:13;;;;;;;36.47;17.10;;;;;;;;;;5074648;28;20045;-64
2024/03/04 01:07:39;;;;;;;33.05;16.05;;;;;;;;;;5080576;28;20048;-64
2024/03/04 01:10:06;;;;;;;33.75;16.95;;;;;;;;;;5074653;28;20048;-64
2024/03/04 01:12:32;;;;;;;36.58;17.02;;;;;;;;;;5079659;28;20039;-64
2024/03/04 01:14:58;;;;;;;34.28;17.45;;;;;;;;;;5076101;28;20053;-64
2024/03/04 01:17:25;;;;;;;35.40;17.50;;;;;;;;;;5079602;28;20040;-64
2024/03/04 01:19:51;;;;;;;35.25;17.38;;;;;;;;;;5078345;28;20135;-64
2024/03/04 01:22:18;;;;;;;35.33;16.58;;;;;;;;;;5078375;28;20477;-65
2024/03/04 01:24:45;;;;;;;32.88;16.83;;;;;;;;;;5076483;28;20048;-64
2024/03/04 01:27:12;;;;;;;36.20;17.17;;;;;;;;;;5079530;28;20358;-64
2024/03/04 01:29:38;;;;;;;34.47;16.85;;;;;;;;;;5079884;28;20044;-64
2024/03/04 01:32:05;;;;;;;32.38;15.52;;;;;;;;;;5077195;28;20139;-64
2024/03/04 01:34:31;;;;;;;35.33;16.85;;;;;;;;;;5079014;28;20040;-65
2024/03/04 01:36:57;;;;;;;36.80;17.30;;;;;;;;;;5073757;28;20052;-64
2024/03/04 01:39:23;;;;;;;37.40;17.15;;;;;;;;;;5087899;28;20043;-65
2024/03/04 01:41:49;;;;;;;31.15;16.15;;;;;;;;;;5075970;28;20040;-64
2024/03/04 01:44:15;;;;;;;34.13;16.92;;;;;;;;;;5069903;28;20036;-64
2024/03/04 01:46:43;;;;;;;29.70;15.32;;;;;;;;;;5085293;28;20062;-64
2024/03/04 01:49:09;;;;;;;31.05;16.10;;;;;;;;;;5078246;28;20036;-64
2024/03/04 01:51:37;;;;;;;30.88;15.65;;;;;;;;;;5079926;28;20056;-64
2024/03/04 01:54:04;;;;;;;33.83;16.90;;;;;;;;;;5082680;28;20481;-64
2024/03/04 01:56:31;;;;;;;31.65;16.48;;;;;;;;;;5080869;28;20360;-62
2024/03/04 01:58:58;;;;;;;31.17;16.00;;;;;;;;;;5058253;28;20031;-64
2024/03/04 02:01:25;;;;;;;28.23;14.80;;;;;;;;;;5073615;28;20055;-63
2024/03/04 02:03:53;;;;;;;30.48;14.98;;;;;;;;;;5101180;28;20048;-63
2024/03/04 02:06:20;;;;;;;27.60;14.32;;;;;;;;;;5074451;28;20420;-63
2024/03/04 02:08:46;;;;;;;27.88;14.73;;;;;;;;;;5078239;28;20036;-63
2024/03/04 02:11:12;;;;;;;31.08;14.85;;;;;;;;;;5077283;28;20031;-64
2024/03/04 02:13:38;;;;;;;25.35;14.30;;;;;;;;;;5082556;28;20043;-64
2024/03/04 02:16:05;;;;;;;25.20;14.00;;;;;;;;;;5083799;28;20056;-64
2024/03/04 02:18:31;;;;;;;27.88;13.60;;;;;;;;;;5079147;28;20063;-64
2024/03/04 02:21:02;;;;;;;28.08;13.98;;;;;;;;;;5077495;28;20051;-63
2024/03/04 02:23:28;;;;;;;30.33;14.40;;;;;;;;;;5080444;28;20071;-64
2024/03/04 02:25:56;;;;;;;27.13;14.20;;;;;;;;;;5075606;28;20389;-63
2024/03/04 02:28:23;;;;;;;26.02;13.65;;;;;;;;;;5083054;28;20035;-63
2024/03/04 02:30:50;;;;;;;28.17;13.95;;;;;;;;;;5074642;28;20032;-64
2024/03/04 02:33:20;;;;;;;27.77;13.95;;;;;;;;;;5079568;28;20052;-64
2024/03/04 02:35:50;;;;;;;26.55;13.20;;;;;;;;;;5071103;28;20419;-63
2024/03/04 02:38:18;;;;;;;26.40;12.82;;;;;;;;;;5072059;28;20055;-64
2024/03/04 02:40:45;;;;;;;24.65;13.43;;;;;;;;;;5078968;28;20036;-64
2024/03/04 02:43:11;;;;;;;24.85;13.52;;;;;;;;;;5077336;28;20501;-63
2024/03/04 02:45:38;;;;;;;24.58;13.05;;;;;;;;;;5073397;28;20228;-64
2024/03/04 02:48:05;;;;;;;26.65;12.57;;;;;;;;;;5076458;28;20040;-63
2024/03/04 02:50:33;;;;;;;27.55;12.98;;;;;;;;;;5081867;28;20466;-64
2024/03/04 02:53:02;;;;;;;28.48;13.32;;;;;;;;;;5080880;28;20036;-64
2024/03/04 02:55:28;;;;;;;24.83;13.20;;;;;;;;;;5075265;28;20059;-64
2024/03/04 02:57:54;;;;;;;29.88;13.48;;;;;;;;;;5079691;28;20044;-63
2024/03/04 03:00:20;;;;;;;25.85;13.27;;;;;;;;;;5076886;28;20052;-66
2024/03/04 03:02:46;;;;;;;26.38;12.70;;;;;;;;;;5078013;28;20415;-65
2024/03/04 03:05:13;;;;;;;23.67;12.80;;;;;;;;;;5078376;28;20032;-66
2024/03/04 03:07:39;;;;;;;25.85;12.98;;;;;;;;;;5080531;28;20044;-66
2024/03/04 03:10:05;;;;;;;26.33;13.45;;;;;;;;;;5080186;28;20048;-64
2024/03/04 03:12:32;;;;;;;28.00;13.98;;;;;;;;;;5086164;28;20039;-64
2024/03/04 03:14:58;;;;;;;27.48;13.48;;;;;;;;;;5077531;28;20045;-63
2024/03/04 03:17:25;;;;;;;29.00;13.85;;;;;;;;;;5085240;28;20040;-64
2024/03/04 03:19:52;;;;;;;24.85;12.82;;;;;;;;;;5080372;28;20517;-64
2024/03/04 03:22:19;;;;;;;28.00;13.57;;;;;;;;;;5081723;28;20056;-63
2024/03/04 03:24:46;;;;;;;26.27;13.70;;;;;;;;;;5082995;28;20048;-65
2024/03/04 03:27:12;;;;;;;27.15;13.07;;;;;;;;;;5078953;28;20040;-63
2024/03/04 03:29:38;;;;;;;30.63;13.68;;;;;;;;;;5080715;28;20051;-64
2024/03/04 03:32:04;;;;;;;25.70;12.98;;;;;;;;;;5084304;28;20044;-64
2024/03/04 03:34:31;;;;;;;25.90;13.70;;;;;;;;;;5077789;28;20367;-66
2024/03/04 03:36:57;;;;;;;26.85;13.65;;;;;;;;;;5081188;28;20070;-64
2024/03/04 03:39:23;;;;;;;27.15;13.25;;;;;;;;;;5075812;28;20041;-64
2024/03/04 03:41:50;;;;;;;26.85;13.95;;;;;;;;;;5077463;28;20040;-65
2024/03/04 03:44:16;;;;;;;27.50;13.55;;;;;;;;;;5085206;28;20052;-63
2024/03/04 03:46:42;;;;;;;27.77;13.55;;;;;;;;;;5079961;28;20510;-64
2024/03/04 03:49:09;;;;;;;24.88;13.10;;;;;;;;;;5074885;28;20051;-64
2024/03/04 03:51:37;;;;;;;27.17;13.38;;;;;;;;;;5076744;28;20048;-64
2024/03/04 03:54:03;;;;;;;27.13;13.02;;;;;;;;;;5084934;28;20036;-63
2024/03/04 03:56:29;;;;;;;25.55;13.75;;;;;;;;;;5077710;28;20056;-64
2024/03/04 03:58:55;;;;;;;26.77;13.90;;;;;;;;;;5077597;28;20071;-66
2024/03/04 04:01:21;;;;;;;27.13;13.38;;;;;;;;;;5076179;28;20413;-64
2024/03/04 04:03:47;;;;;;;30.52;12.60;;;;;;;;;;5075674;28;20055;-63
2024/03/04 04:06:13;;;;;;;27.50;13.75;;;;;;;;;;5074001;28;20044;-64
2024/03/04 04:08:40;;;;;;;26.73;13.20;;;;;;;;;;5079826;28;20036;-66
2024/03/04 04:11:07;;;;;;;24.35;12.75;;;;;;;;;;5079739;28;20525;-64
2024/03/04 04:13:33;;;;;;;26.70;12.85;;;;;;;;;;5076888;28;20032;-63
2024/03/04 04:15:59;;;;;;;27.85;12.73;;;;;;;;;;5079109;28;20047;-64
2024/03/04 04:18:25;;;;;;;24.00;12.25;;;;;;;;;;5081865;28;20048;-64
2024/03/04 04:20:52;;;;;;;28.60;13.48;;;;;;;;;;5078631;28;20059;-64
2024/03/04 04:23:18;;;;;;;26.77;13.07;;;;;;;;;;5074213;28;20058;-65
2024/03/04 04:25:44;;;;;;;25.13;13.10;;;;;;;;;;5078344;28;20071;-64
2024/03/04 04:28:10;;;;;;;21.65;11.60;;;;;;;;;;5080508;28;20045;-64
2024/03/04 04:30:38;;;;;;;26.42;12.07;;;;;;;;;;5078524;28;20493;-63
2024/03/04 04:33:04;;;;;;;22.65;11.93;;;;;;;;;;5077868;28;20419;-65
2024/03/04 04:35:30;;;;;;;27.98;12.52;;;;;;;;;;5077906;28;20036;-65
2024/03/04 04:37:56;;;;;;;25.38;12.60;;;;;;;;;;5078134;28;20409;-66
2024/03/04 04:40:22;;;;;;;25.00;12.05;;;;;;;;;;5082172;28;20040;-66
2024/03/04 04:42:49;;;;;;;22.30;10.80;;;;;;;;;;5077024;28;20161;-66
2024/03/04 04:45:15;;;;;;;24.63;11.85;;;;;;;;;;5052384;28;20033;-66
2024/03/04 04:47:41;;;;;;;22.25;10.55;;;;;;;;;;5081826;28;20044;-65
2024/03/04 04:50:07;;;;;;;24.45;12.10;;;;;;;;;;5079605;28;20059;-66
2024/03/04 04:52:34;;;;;;;24.48;11.55;;;;;;;;;;5081205;28;20143;-65
2024/03/04 04:55:00;;;;;;;23.65;11.88;;;;;;;;;;5067648;28;20043;-66
2024/03/04 04:57:26;;;;;;;24.23;11.70;;;;;;;;;;5076436;28;20037;-65
2024/03/04 04:59:53;;;;;;;23.73;11.23;;;;;;;;;;5075633;28;20048;-64
2024/03/04 05:02:19;;;;;;;23.05;11.73;;;;;;;;;;5073653;28;20044;-65
2024/03/04 05:04:45;;;;;;;24.73;12.25;;;;;;;;;;5074763;28;20041;-66
2024/03/04 05:07:11;;;;;;;24.63;12.25;;;;;;;;;;5073393;28;20506;-65
2024/03/04 05:09:38;;;;;;;27.77;12.75;;;;;;;;;;5086327;28;20142;-65
2024/03/04 05:12:04;;;;;;;25.48;12.60;;;;;;;;;;5076921;28;20044;-64
2024/03/04 05:14:30;;;;;;;25.20;12.50;;;;;;;;;;5072107;28;20041;-65
2024/03/04 05:16:56;;;;;;;26.58;13.48;;;;;;;;;;5076215;28;20154;-65
2024/03/04 05:19:33;;;;;;;24.73;12.88;;;;;;;;;;5077275;28;20048;-65
2024/03/04 05:22:00;;;;;;;23.50;12.60;;;;;;;;;;5077310;28;20070;-67
2024/03/04 05:24:26;;;;;;;28.02;13.73;;;;;;;;;;5083142;28;20041;-65
2024/03/04 05:26:53;;;;;;;24.17;12.52;;;;;;;;;;5072281;28;20390;-65
2024/03/04 05:29:19;;;;;;;28.00;13.60;;;;;;;;;;5077772;28;20043;-66
2024/03/04 05:31:52;;;;;;;56.72;20.55;;;;;;;;;;5070874;28;20040;-65
2024/03/04 05:34:19;;;;;;;47.05;18.95;;;;;;;;;;5070628;28;20421;-65
2024/03/04 05:36:45;;;;;;;79.15;30.05;;;;;;;;;;5071698;28;20040;-65
2024/03/04 05:39:11;;;;;;;68.25;25.90;;;;;;;;;;5040507;28;1071999;-65
2024/03/04 05:41:39;;;;;;;84.43;31.00;;;;;;;;;;5077578;28;20058;-65
2024/03/04 05:44:05;;;;;;;63.80;25.25;;;;;;;;;;5078012;28;20040;-64
2024/03/04 05:46:31;;;;;;;66.80;26.05;;;;;;;;;;5072220;28;20477;-65
2024/03/04 05:48:57;;;;;;;52.67;22.25;;;;;;;;;;5081143;28;20384;-65
2024/03/04 05:51:23;;;;;;;55.88;23.65;;;;;;;;;;5076015;28;20048;-65
2024/03/04 05:53:49;;;;;;;63.97;25.98;;;;;;;;;;5075822;28;20051;-64
2024/03/04 05:56:15;;;;;;;37.50;17.58;;;;;;;;;;5075525;28;20481;-65
2024/03/04 05:58:41;;;;;;;30.30;14.52;;;;;;;;;;5075888;28;20612;-65
2024/03/04 06:01:08;;;;;;;29.08;13.65;;;;;;;;;;5074893;28;20043;-65
2024/03/04 06:03:34;;;;;;;27.27;12.38;;;;;;;;;;5073883;28;20047;-65
2024/03/04 06:06:00;;;;;;;33.78;15.13;;;;;;;;;;5078169;28;20052;-65
2024/03/04 06:08:26;;;;;;;26.80;12.35;;;;;;;;;;5082452;28;20056;-62
2024/03/04 06:10:52;;;;;;;31.48;13.93;;;;;;;;;;5077227;28;20059;-61
2024/03/04 06:13:18;;;;;;;35.53;15.25;;;;;;;;;;5074909;28;20505;-61
2024/03/04 06:15:44;;;;;;;34.40;15.20;;;;;;;;;;5072654;28;20165;-60
2024/03/04 06:18:11;;;;;;;33.97;14.88;;;;;;;;;;5073834;28;20044;-62
2024/03/04 06:20:37;;;;;;;26.17;12.43;;;;;;;;;;5078552;28;20028;-61
2024/03/04 06:23:03;;;;;;;30.48;13.77;;;;;;;;;;5076144;28;20398;-62
2024/03/04 06:25:29;;;;;;;33.53;14.75;;;;;;;;;;5078129;28;20055;-62
2024/03/04 06:27:55;;;;;;;30.60;13.38;;;;;;;;;;5061719;28;20044;-61
2024/03/04 06:30:22;;;;;;;33.72;14.30;;;;;;;;;;5072630;28;20040;-62
2024/03/04 06:32:48;;;;;;;32.53;13.75;;;;;;;;;;5081324;28;20036;-64
2024/03/04 06:35:14;;;;;;;31.42;13.93;;;;;;;;;;5075757;28;20039;-62
2024/03/04 06:37:40;;;;;;;30.20;13.75;;;;;;;;;;5081630;28;20035;-63
2024/03/04 06:40:07;;;;;;;30.08;14.27;;;;;;;;;;5081661;28;20048;-62
2024/03/04 06:42:33;;;;;;;31.20;14.00;;;;;;;;;;5068484;28;20039;-61
2024/03/04 06:44:59;;;;;;;34.38;14.77;;;;;;;;;;5079424;28;20044;-60
2024/03/04 06:47:25;;;;;;;35.67;15.98;;;;;;;;;;5078998;28;20060;-61
2024/03/04 06:49:51;;;;;;;35.45;15.43;;;;;;;;;;5075264;28;20040;-61
2024/03/04 06:52:18;;;;;;;35.50;14.95;;;;;;;;;;5088254;28;20039;-62
2024/03/04 06:54:44;;;;;;;40.20;16.95;;;;;;;;;;5075554;28;20037;-62
2024/03/04 06:57:11;;;;;;;37.85;15.25;;;;;;;;;;5088400;28;20048;-62
2024/03/04 06:59:37;;;;;;;38.60;16.02;;;;;;;;;;5084946;28;20051;-62
2024/03/04 07:02:03;;;;;;;33.97;15.15;;;;;;;;;;5080840;28;20044;-62
2024/03/04 07:04:29;;;;;;;33.10;13.90;;;;;;;;;;5084003;28;20032;-62
2024/03/04 07:06:55;;;;;;;33.67;14.45;;;;;;;;;;5081364;28;20044;-60
2024/03/04 07:09:21;;;;;;;37.10;14.63;;;;;;;;;;5081667;28;20052;-62
2024/03/04 07:11:47;;;;;;;32.88;14.85;;;;;;;;;;5082258;28;20035;-61
2024/03/04 07:14:14;;;;;;;36.47;14.82;;;;;;;;;;5076144;28;20044;-62
2024/03/04 07:16:40;;;;;;;37.50;16.17;;;;;;;;;;5079036;28;20036;-62
2024/03/04 07:19:06;;;;;;;33.17;13.85;;;;;;;;;;5082496;28;21348;-61
2024/03/04 07:21:32;;;;;;;35.88;14.80;;;;;;;;;;5066780;28;20497;-61
2024/03/04 07:23:58;;;;;;;37.08;15.30;;;;;;;;;;5081957;28;20047;-61
2024/03/04 07:26:24;;;;;;;37.10;15.20;;;;;;;;;;5077995;28;20059;-62
2024/03/04 07:28:51;;;;;;;37.25;15.10;;;;;;;;;;5077634;28;20048;-62
2024/03/04 07:31:17;;;;;;;35.55;14.45;;;;;;;;;;5073814;28;20043;-62
2024/03/04 07:33:43;;;;;;;32.75;14.07;;;;;;;;;;5074531;28;20447;-62
2024/03/04 07:36:13;;;;;;;33.78;13.77;;;;;;;;;;5074270;28;20027;-62
2024/03/04 07:38:39;;;;;;;35.53;14.98;;;;;;;;;;5074966;28;20457;-62
2024/03/04 07:41:06;;;;;;;31.58;13.65;;;;;;;;;;5071326;28;20035;-62
2024/03/04 07:43:32;;;;;;;36.80;15.27;;;;;;;;;;5080269;28;20056;-61
2024/03/04 07:45:58;;;;;;;33.53;15.93;;;;;;;;;;5081328;28;20055;-61
2024/03/04 07:48:24;;;;;;;33.45;14.38;;;;;;;;;;5080248;28;20544;-61
2024/03/04 07:50:50;;;;;;;30.25;14.40;;;;;;;;;;5074713;28;20039;-62
2024/03/04 07:53:16;;;;;;;36.17;14.57;;;;;;;;;;5077365;28;20059;-61
2024/03/04 07:55:43;;;;;;;38.90;15.15;;;;;;;;;;5075697;28;20500;-61
2024/03/04 07:58:10;;;;;;;37.42;14.65;;;;;;;;;;5074761;28;20420;-61
2024/03/04 08:00:36;;;;;;;33.25;14.45;;;;;;;;;;5080018;28;20054;-62
2024/03/04 08:03:02;;;;;;;34.45;13.57;;;;;;;;;;5079066;28;20417;-62
2024/03/04 08:05:28;;;;;;;35.40;14.98;;;;;;;;;;5064452;28;20032;-61
2024/03/04 08:07:56;;;;;;;39.85;15.48;;;;;;;;;;5082440;28;20028;-62
2024/03/04 08:10:22;;;;;;;40.42;14.95;;;;;;;;;;5080713;28;20035;-62
2024/03/04 08:12:48;;;;;;;34.10;14.88;;;;;;;;;;5077106;28;20115;-62
2024/03/04 08:15:14;;;;;;;40.67;16.20;;;;;;;;;;5078444;28;20044;-66
2024/03/04 08:17:40;;;;;;;39.97;16.02;;;;;;;;;;5080128;28;20044;-65
2024/03/04 08:20:08;;;;;;;39.35;15.65;;;;;;;;;;5076190;28;20036;-66
2024/03/04 08:22:34;;;;;;;43.13;14.48;;;;;;;;;;5085132;28;20488;-66
2024/03/04 08:25:01;;;;;;;41.72;16.48;;;;;;;;;;5083592;28;20044;-65
2024/03/04 08:27:27;;;;;;;40.88;14.98;;;;;;;;;;5080534;28;20040;-65
2024/03/04 08:29:53;;;;;;;35.15;15.05;;;;;;;;;;5077715;28;20032;-64
2024/03/04 08:32:19;;;;;;;38.28;14.82;;;;;;;;;;5079454;28;20048;-65
2024/03/04 08:34:49;;;;;;;39.22;15.60;;;;;;;;;;5082027;28;20032;-66
2024/03/04 08:37:16;;;;;;;39.95;14.77;;;;;;;;;;5072211;28;20142;-66
2024/03/04 08:39:42;;;;;;;39.75;15.43;;;;;;;;;;5077342;28;20404;-65
2024/03/04 08:42:08;;;;;;;38.92;15.82;;;;;;;;;;5075825;28;20047;-65
2024/03/04 08:44:34;;;;;;;42.33;15.98;;;;;;;;;;5079049;28;20032;-65
2024/03/04 08:47:00;;;;;;;40.03;16.35;;;;;;;;;;5073823;28;20370;-65
2024/03/04 08:49:26;;;;;;;39.22;14.70;;;;;;;;;;5078221;28;20064;-65
2024/03/04 08:51:52;;;;;;;40.08;16.08;;;;;;;;;;5074314;28;20031;-65
2024/03/04 08:54:18;;;;;;;44.35;16.40;;;;;;;;;;5072786;28;20068;-65
2024/03/04 08:56:44;;;;;;;38.28;15.05;;;;;;;;;;5077834;28;20039;-65
2024/03/04 08:59:11;;;;;;;41.38;16.45;;;;;;;;;;5075890;28;20055;-67
2024/03/04 09:01:37;;;;;;;36.38;15.48;;;;;;;;;;5073908;28;20067;-67
2024/03/04 09:04:03;;;;;;;39.63;14.77;;;;;;;;;;5077100;28;20039;-67
2024/03/04 09:06:29;;;;;;;38.35;15.55;;;;;;;;;;5079418;28;20059;-67
2024/03/04 09:08:57;;;;;;;36.63;14.80;;;;;;;;;;5083209;28;20040;-66
2024/03/04 09:11:24;;;;;;;42.00;15.32;;;;;;;;;;5081520;28;20028;-67
2024/03/04 09:13:50;;;;;;;35.70;14.65;;;;;;;;;;5076016;28;20047;-67
2024/03/04 09:16:17;;;;;;;42.35;16.55;;;;;;;;;;5072695;28;20390;-67
2024/03/04 09:18:43;;;;;;;41.80;17.23;;;;;;;;;;5076923;28;20103;-67
2024/03/04 09:21:09;;;;;;;42.25;17.25;;;;;;;;;;5079323;28;20048;-67
2024/03/04 09:23:38;;;;;;;40.70;17.35;;;;;;;;;;5078121;28;20043;-67
2024/03/04 09:26:07;;;;;;;44.90;18.17;;;;;;;;;;5078573;28;20035;-67
2024/03/04 09:28:34;;;;;;;41.95;15.38;;;;;;;;;;5075668;28;20039;-66
2024/03/04 09:31:00;;;;;;;45.42;16.33;;;;;;;;;;5073234;28;20047;-67
2024/03/04 09:33:26;;;;;;;44.75;17.58;;;;;;;;;;5073393;28;20523;-67
2024/03/04 09:35:52;;;;;;;41.83;15.70;;;;;;;;;;5081963;28;20044;-67
2024/03/04 09:38:19;;;;;;;46.85;16.73;;;;;;;;;;5075445;28;20044;-67
2024/03/04 09:40:45;;;;;;;44.92;17.83;;;;;;;;;;5073308;28;20036;-67
2024/03/04 09:43:18;;;;;;;44.38;17.20;;;;;;;;;;5077349;28;20051;-66
2024/03/04 09:45:48;;;;;;;47.97;16.05;;;;;;;;;;5077353;28;20048;-66
2024/03/04 09:48:16;;;;;;;;;;;;;;;;;;5072309;28;20039;-66
2024/03/04 09:50:42;;;;;;;45.80;16.48;;;;;;;;;;5081684;28;19912;-65
2024/03/04 09:53:10;;;;;;;42.70;16.67;;;;;;;;;;5073277;28;20070;-65
2024/03/04 09:55:36;;;;;;;48.47;17.50;;;;;;;;;;5076508;28;20044;-66
2024/03/04 09:58:04;;;;;;;47.47;17.27;;;;;;;;;;5077624;28;20060;-65
2024/03/04 10:00:31;;;;;;;50.70;17.65;;;;;;;;;;5073071;28;20060;-66
2024/03/04 10:02:58;;;;;;;56.70;19.10;;;;;;;;;;5073754;28;20571;-66
2024/03/04 10:05:24;;;;;;;47.78;17.77;;;;;;;;;;5073630;28;20067;-65
2024/03/04 10:07:51;;;;;;;52.85;18.88;;;;;;;;;;5079662;28;20044;-65
2024/03/04 10:10:17;;;;;;;48.70;17.15;;;;;;;;;;5078925;28;20424;-65
2024/03/04 10:12:43;;;;;;;49.90;17.05;;;;;;;;;;5085606;28;20044;-65
2024/03/04 10:15:10;;;;;;;52.05;18.83;;;;;;;;;;5079741;28;20417;-65
2024/03/04 10:17:37;;;;;;;49.40;17.48;;;;;;;;;;5082396;28;20044;-65
2024/03/04 10:20:08;;;;;;;49.58;17.55;;;;;;;;;;5082622;28;20040;-64
2024/03/04 10:22:36;;;;;;;47.13;15.65;;;;;;;;;;5078534;28;20040;-65
2024/03/04 10:25:09;;;;;;;53.15;18.30;;;;;;;;;;5078396;28;20962;-65
2024/03/04 10:27:37;;;;;;;50.30;16.88;;;;;;;;;;5076926;28;20401;-66
2024/03/04 10:30:17;;;;;;;55.35;17.38;;;;;;;;;;5083404;28;20131;-66
2024/03/04 10:32:50;;;;;;;52.17;16.73;;;;;;;;;;5077343;28;20505;-65
2024/03/04 10:35:17;;;;;;;63.50;21.35;;;;;;;;;;5077639;28;20074;-65
2024/03/04 10:37:44;;;;;;;56.10;19.33;;;;;;;;;;5075026;28;20044;-65
2024/03/04 10:40:12;;;;;;;53.53;17.90;;;;;;;;;;5086818;28;20102;-65
2024/03/04 10:42:43;;;;;;;51.53;17.73;;;;;;;;;;5077607;28;20043;-65
2024/03/04 10:45:12;;;;;;;55.78;19.13;;;;;;;;;;5087707;28;20044;-65
2024/03/04 10:47:41;;;;;;;53.20;17.48;;;;;;;;;;5076515;28;20044;-65
2024/03/04 10:50:08;;;;;;;57.15;18.23;;;;;;;;;;5075299;28;20060;-66
2024/03/04 10:52:34;;;;;;;57.17;19.42;;;;;;;;;;5074806;28;20032;-65
2024/03/04 10:55:01;;;;;;;59.78;18.85;;;;;;;;;;5084058;28;20341;-65
2024/03/04 10:57:30;;;;;;;62.65;19.95;;;;;;;;;;5081843;28;20443;-65
2024/03/04 11:00:20;;;;;;;69.95;21.00;;;;;;;;;;5080486;28;20508;-65
2024/03/04 11:03:04;;;;;;;64.65;18.05;;;;;;;;;;5078206;28;20126;-65
2024/03/04 11:05:33;;;;;;;58.78;18.63;;;;;;;;;;5086178;28;20032;-65
2024/03/04 11:08:06;;;;;;;66.25;20.85;;;;;;;;;;5081174;28;20036;-66
2024/03/04 11:10:39;;;;;;;70.80;21.75;;;;;;;;;;5077410;28;21649;-66
2024/03/04 11:13:43;;;;;;;70.40;23.10;;;;;;;;;;5081006;28;20050;-65
2024/03/04 11:16:18;;;;;;;70.95;23.67;;;;;;;;;;5081033;28;20390;-65
2024/03/04 11:19:03;;;;;;;65.68;21.73;;;;;;;;;;5086082;28;20043;-65
2024/03/04 11:21:31;;;;;;;67.05;22.52;;;;;;;;;;5075706;28;20050;-65
2024/03/04 11:23:57;;;;;;;70.25;21.50;;;;;;;;;;5080900;28;20040;-65
2024/03/04 11:26:24;;;;;;;57.13;20.40;;;;;;;;;;5076285;28;20052;-65
2024/03/04 11:28:51;;;;;;;71.13;20.88;;;;;;;;;;5084416;28;20044;-65
2024/03/04 11:31:28;;;;;;;74.65;23.05;;;;;;;;;;5081613;28;20036;-66
2024/03/04 11:34:01;;;;;;;60.55;20.52;;;;;;;;;;5100050;27;20048;-66
2024/03/04 11:36:27;;;;;;;57.95;19.83;;;;;;;;;;5076170;28;20441;-65
2024/03/04 11:38:56;;;;;;;61.20;20.50;;;;;;;;;;5081938;28;20043;-65
2024/03/04 11:41:40;;;;;;;56.13;19.95;;;;;;;;;;5082141;28;20036;-65
2024/03/04 11:44:08;;;;;;;56.58;17.70;;;;;;;;;;5079275;28;20042;-65
2024/03/04 11:46:44;;;;;;;50.50;18.27;;;;;;;;;;5076099;28;20440;-65
2024/03/04 11:49:30;;;;;;;51.88;19.08;;;;;;;;;;5085236;28;20030;-67
2024/03/04 11:52:06;;;;;;;50.90;17.73;;;;;;;;;;5078208;28;20040;-64
2024/03/04 11:54:32;;;;;;;56.60;19.98;;;;;;;;;;5078116;28;20060;-64
2024/03/04 11:56:59;;;;;;;56.95;18.27;;;;;;;;;;5079449;28;20040;-64
2024/03/04 11:59:27;;;;;;;52.47;17.73;;;;;;;;;;5078319;28;20048;-63
2024/03/04 12:01:53;;;;;;;53.92;17.98;;;;;;;;;;5078079;28;20047;-64
2024/03/04 12:04:22;;;;;;;56.97;16.55;;;;;;;;;;5078031;28;20040;-63
2024/03/04 12:06:48;;;;;;;50.83;16.90;;;;;;;;;;5079020;28;20424;-63
2024/03/04 12:09:18;;;;;;;47.90;16.08;;;;;;;;;;5073012;28;20044;-63
2024/03/04 12:11:44;;;;;;;52.97;17.05;;;;;;;;;;5078967;28;20048;-64
2024/03/04 12:14:11;;;;;;;50.20;16.02;;;;;;;;;;5078702;28;20035;-64
2024/03/04 12:16:37;;;;;;;49.75;15.68;;;;;;;;;;5082488;28;20024;-64
2024/03/04 12:19:05;;;;;;;44.55;16.17;;;;;;;;;;5076699;28;20033;-64
2024/03/04 12:21:32;;;;;;;49.13;16.55;;;;;;;;;;5080738;28;20044;-64
2024/03/04 12:23:58;;;;;;;50.65;16.67;;;;;;;;;;5080301;28;20142;-64
2024/03/04 12:26:25;;;;;;;46.88;15.75;;;;;;;;;;5074056;28;20032;-64
2024/03/04 12:29:00;;;;;;;45.47;16.00;;;;;;;;;;5075030;28;20051;-64
2024/03/04 12:31:27;;;;;;;40.97;15.15;;;;;;;;;;5073541;28;20049;-63
2024/03/04 12:33:54;;;;;;;42.05;15.18;;;;;;;;;;5075369;28;20056;-64
2024/03/04 12:36:24;;;;;;;41.53;15.35;;;;;;;;;;5074631;28;20037;-63
2024/03/04 12:38:51;;;;;;;44.80;14.77;;;;;;;;;;5075694;28;20421;-64
2024/03/04 12:41:18;;;;;;;49.85;15.45;;;;;;;;;;5075829;28;20032;-63
2024/03/04 12:43:48;;;;;;;47.70;15.40;;;;;;;;;;5084408;28;20685;-64
2024/03/04 12:46:15;;;;;;;43.30;15.23;;;;;;;;;;5074721;28;20040;-64
2024/03/04 12:48:41;;;;;;;43.13;15.05;;;;;;;;;;5072987;28;20047;-64
2024/03/04 12:51:07;;;;;;;50.08;16.30;;;;;;;;;;5077296;28;21718;-64
2024/03/04 12:53:33;;;;;;;44.72;15.68;;;;;;;;;;5075399;28;20044;-63
2024/03/04 12:55:59;;;;;;;46.85;15.10;;;;;;;;;;5076003;28;20040;-64
2024/03/04 12:58:26;;;;;;;44.60;14.13;;;;;;;;;;5075608;28;20482;-63
2024/03/04 13:00:52;;;;;;;42.75;14.02;;;;;;;;;;5078385;28;20032;-65
2024/03/04 13:03:18;;;;;;;44.67;14.18;;;;;;;;;;5072405;28;20059;-64
2024/03/04 13:05:44;;;;;;;42.67;14.02;;;;;;;;;;5075489;28;20082;-63
2024/03/04 13:08:11;;;;;;;41.20;14.63;;;;;;;;;;5076142;28;20486;-64
2024/03/04 13:10:38;;;;;;;39.22;14.30;;;;;;;;;;5081094;28;20051;-65
2024/03/04 13:13:05;;;;;;;41.60;15.02;;;;;;;;;;5073724;28;20044;-63
2024/03/04 13:15:32;;;;;;;37.88;13.25;;;;;;;;;;5078376;28;20059;-64
2024/03/04 13:17:58;;;;;;;36.15;12.65;;;;;;;;;;5078477;28;20228;-64
2024/03/04 13:20:24;;;;;;;43.40;13.27;;;;;;;;;;5077318;28;20037;-64
2024/03/04 13:22:50;;;;;;;38.65;13.48;;;;;;;;;;5073833;28;20064;-64
2024/03/04 13:25:17;;;;;;;43.35;14.95;;;;;;;;;;5074603;28;20384;-64
2024/03/04 13:27:46;;;;;;;39.85;14.48;;;;;;;;;;5074175;28;20048;-63
2024/03/04 13:30:12;;;;;;;37.45;12.95;;;;;;;;;;5071237;28;20046;-64
2024/03/04 13:32:39;;;;;;;35.00;12.48;;;;;;;;;;5071257;28;20063;-64
2024/03/04 13:35:09;;;;;;;37.15;13.23;;;;;;;;;;5069769;28;20528;-64
2024/03/04 13:37:38;;;;;;;39.97;14.02;;;;;;;;;;5074003;28;20044;-63
2024/03/04 13:40:05;;;;;;;;;;;;;;;;;;5062787;28;20076;-63
2024/03/04 13:42:31;;;;;;;40.35;13.15;;;;;;;;;;5074429;28;19935;-64
2024/03/04 13:44:57;;;;;;;38.30;13.80;;;;;;;;;;5075814;28;20040;-64
2024/03/04 13:47:23;;;;;;;42.17;14.73;;;;;;;;;;5078385;28;20032;-63
2024/03/04 13:49:49;;;;;;;36.60;13.18;;;;;;;;;;5073775;28;20047;-64
2024/03/04 13:52:15;;;;;;;37.10;13.50;;;;;;;;;;5072180;28;20060;-64
2024/03/04 13:54:41;;;;;;;41.40;13.98;;;;;;;;;;5075838;28;20032;-64
2024/03/04 13:57:08;;;;;;;41.47;14.18;;;;;;;;;;5077291;28;21418;-65
2024/03/04 13:59:35;;;;;;;44.08;14.95;;;;;;;;;;5074536;28;20055;-63
2024/03/04 14:02:02;;;;;;;39.08;13.63;;;;;;;;;;5081671;28;20138;-65
2024/03/04 14:04:28;;;;;;;40.42;15.57;;;;;;;;;;5076787;28;20520;-64
2024/03/04 14:06:54;;;;;;;44.83;16.95;;;;;;;;;;5077066;28;20067;-64
2024/03/04 14:09:21;;;;;;;44.17;15.20;;;;;;;;;;5074648;28;20052;-64
2024/03/04 14:11:48;;;;;;;51.33;15.60;;;;;;;;;;5080197;28;20362;-63
2024/03/04 14:14:15;;;;;;;55.60;16.42;;;;;;;;;;5075934;28;20044;-64
2024/03/04 14:16:45;;;;;;;42.20;14.45;;;;;;;;;;5078457;28;20404;-63
2024/03/04 14:19:12;;;;;;;47.53;16.10;;;;;;;;;;5099890;22;20532;-68